createdAt,value
2022-08-26T00:16:12.441Z,1013.52
2022-08-26T00:45:12.158Z,1013.77
2022-08-26T01:13:42.926Z,1013.83
2022-08-26T01:42:10.864Z,1013.81
2022-08-26T02:10:29.970Z,1014.06
2022-08-26T02:38:46.274Z,1014.18
2022-08-26T03:07:01.782Z,1014.1
2022-08-26T03:36:11.187Z,1014.03
2022-08-26T04:04:51.269Z,1014.01
2022-08-26T04:33:50.320Z,1014.14
2022-08-26T05:02:17.448Z,1014.25
2022-08-26T05:31:24.030Z,1014.52
2022-08-26T05:59:51.579Z,1014.66
2022-08-26T06:28:27.284Z,1014.77
2022-08-26T06:56:49.816Z,1014.95
2022-08-26T07:25:16.199Z,1015.01
2022-08-26T07:53:53.633Z,1014.99
2022-08-26T08:22:21.491Z,1014.95
2022-08-26T08:50:27.891Z,1014.83
2022-08-26T09:18:55.990Z,1014.78
2022-08-26T09:47:23.356Z,1014.68
2022-08-26T10:16:16.428Z,1014.27
2022-08-26T10:45:15.776Z,1014.07
2022-08-26T11:13:32.338Z,1013.81
2022-08-26T11:42:43.369Z,1013.7
2022-08-26T12:11:27.445Z,1013.6
2022-08-26T12:40:22.487Z,1013.23
2022-08-26T13:09:21.111Z,1013.13
2022-08-26T13:37:48.850Z,1013.2
2022-08-26T14:06:09.338Z,1012.78
2022-08-26T14:34:29.983Z,1013.05
2022-08-26T15:03:27.896Z,1014.09
2022-08-26T15:32:25.026Z,1013.75
2022-08-26T16:00:30.632Z,1013.53
2022-08-26T16:28:57.175Z,1013.43
2022-08-26T16:57:17.380Z,1013.61
2022-08-26T17:25:30.183Z,1013.69
2022-08-26T17:54:01.659Z,1014.5
2022-08-26T18:22:16.171Z,1014.65
2022-08-26T18:50:53.321Z,1014.87
2022-08-26T19:19:12.788Z,1014.99
2022-08-26T19:47:29.903Z,1015.44
2022-08-26T20:15:54.879Z,1015.57
2022-08-26T20:44:18.481Z,1015.57
2022-08-26T21:12:32.133Z,1015.54
2022-08-26T21:41:05.195Z,1015.54
2022-08-26T22:10:03.388Z,1015.96
2022-08-26T22:38:55.308Z,1016.16
2022-08-26T23:08:22.690Z,1016.03
2022-08-26T23:37:01.884Z,1016.03
